UUDD/DME METAR and TAF weather

Enter ICAO airport designator
Station Type Date Time Source
UUDD METAR 2022/01/29 09:30 UTC NOAA

UUDD 290930Z VRB01MPS 3700 BR BKN046 M05/M06 Q1003 R88/590335 NOSIG


Station Type Date Time Source
UUDD Decoded METAR 2022/01/29 09:30 UTC NOAA

Moscow / Domodedovo, Russia (UUDD) 55-24N 037-54E
Jan 29, 2022 - 04:30 AM EST / 2022.01.29 0930 UTC
Wind: Variable at 2 MPH (2 KT):0
Visibility: 2 mile(s):0
Sky conditions: mostly cloudy
Weather: mist
Temperature: 23 F (-5 C)
Dew Point: 21 F (-6 C)
Relative Humidity: 92%
Pressure (altimeter): 29.62 in. Hg (1003 hPa)
ob: UUDD 290930Z VRB01MPS 3700 BR BKN046 M05/M06 Q1003 R88/590335 NOSIG
cycle: 9

Station Type Date Time Source
UUDD TAF 2022/01/29 09:22 UTC NOAA

TAF UUDD 290758Z 2909/3015 VRB01MPS 3100 -SN BR FEW006 OVC016 TXM02/2912Z TNM06/3003Z
TEMPO 2909/2918 1000 SHSN FEW004 BKN012CB PROB40
TEMPO 2918/3003 0300 FZFG FEW003
BECMG 3003/3005 17006G12MPS
TEMPO 3006/3015 0700 +SHSN FEW004 BKN011CB

Example: see airport list